Time;durP1;ratioP1;P1;durP2;ratioP2;P2;SDS_P1;SDS_P2;PMS_P1;PMS_P2;Temp;Humidity;BMP_temperature;BMP_pressure;BME280_temperature;BME280_humidity;BME280_pressure;Samples;Min_cycle;Max_cycle;Signal;HPM_P1;HPM_P2
2021/12/31 00:01:24;;;;;;;0.43;0.40;;;;;;;;;;4888348;29;20126;-60
2021/12/31 00:03:52;;;;;;;0.63;0.63;;;;;;;;;;4889990;29;20052;-60
2021/12/31 00:06:17;;;;;;;0.30;0.30;;;;;;;;;;4889368;29;20047;-60
2021/12/31 00:08:43;;;;;;;0.25;0.25;;;;;;;;;;4894451;29;20041;-60
2021/12/31 00:11:09;;;;;;;0.28;0.28;;;;;;;;;;4884469;29;20044;-58
2021/12/31 00:13:35;;;;;;;0.40;0.40;;;;;;;;;;4886529;29;20063;-60
2021/12/31 00:16:01;;;;;;;0.60;0.38;;;;;;;;;;4888439;29;20128;-59
2021/12/31 00:18:47;;;;;;;0.30;0.30;;;;;;;;;;4844703;29;20605;-59
2021/12/31 00:21:12;;;;;;;31.25;1.88;;;;;;;;;;4845059;29;20046;-61
2021/12/31 00:23:41;;;;;;;0.22;0.22;;;;;;;;;;4828859;29;20097;-60
2021/12/31 00:26:07;;;;;;;1.13;1.02;;;;;;;;;;4844716;29;20491;-60
2021/12/31 00:28:33;;;;;;;0.20;0.20;;;;;;;;;;4843370;29;20064;-60
2021/12/31 00:30:59;;;;;;;0.52;0.52;;;;;;;;;;4846463;29;20423;-60
2021/12/31 00:33:25;;;;;;;0.20;0.20;;;;;;;;;;4843785;29;20045;-60
2021/12/31 00:35:51;;;;;;;0.30;0.30;;;;;;;;;;4843739;29;20571;-58
2021/12/31 00:38:17;;;;;;;0.20;0.20;;;;;;;;;;4843873;29;20045;-60
2021/12/31 00:40:43;;;;;;;0.20;0.20;;;;;;;;;;4845147;29;20041;-59
2021/12/31 00:43:12;;;;;;;0.45;0.43;;;;;;;;;;4843461;29;20136;-60
2021/12/31 00:45:40;;;;;;;0.30;0.30;;;;;;;;;;4842790;29;20452;-59
2021/12/31 00:48:07;;;;;;;3.25;0.90;;;;;;;;;;4843796;29;20076;-59
2021/12/31 00:50:33;;;;;;;0.25;0.22;;;;;;;;;;4876095;29;20717;-60
2021/12/31 00:52:59;;;;;;;0.60;0.60;;;;;;;;;;4885573;29;20512;-60
2021/12/31 00:55:25;;;;;;;0.45;0.45;;;;;;;;;;4883113;29;20048;-58
2021/12/31 00:57:51;;;;;;;0.40;0.40;;;;;;;;;;4885020;29;20124;-60
2021/12/31 01:00:17;;;;;;;0.35;0.35;;;;;;;;;;4885610;29;20047;-60
2021/12/31 01:02:46;;;;;;;24.90;1.67;;;;;;;;;;4885160;29;20087;-60
2021/12/31 01:05:13;;;;;;;0.28;0.28;;;;;;;;;;4886165;29;20060;-59
2021/12/31 01:07:39;;;;;;;12.13;1.95;;;;;;;;;;4884840;29;20342;-60
2021/12/31 01:10:06;;;;;;;0.30;0.28;;;;;;;;;;4884510;29;20064;-60
2021/12/31 01:12:32;;;;;;;1.40;1.10;;;;;;;;;;4883792;29;20041;-60
2021/12/31 01:15:05;;;;;;;1.00;0.90;;;;;;;;;;4884409;29;20517;-60
2021/12/31 01:20:22;;;;;;;0.30;0.30;;;;;;;;;;4864936;29;20063;-59
2021/12/31 01:22:48;;;;;;;0.70;0.70;;;;;;;;;;4886200;29;20048;-66
2021/12/31 01:25:14;;;;;;;0.25;0.25;;;;;;;;;;4885059;29;20072;-60
2021/12/31 01:27:40;;;;;;;3.80;0.95;;;;;;;;;;4880733;29;20089;-60
2021/12/31 01:30:07;;;;;;;0.35;0.30;;;;;;;;;;4883595;29;20592;-60
2021/12/31 01:32:33;;;;;;;2.30;1.15;;;;;;;;;;4888285;29;20036;-60
2021/12/31 01:34:59;;;;;;;1.33;1.23;;;;;;;;;;4884747;29;20055;-60
2021/12/31 01:37:25;;;;;;;0.52;0.52;;;;;;;;;;4885785;29;20152;-59
2021/12/31 01:39:51;;;;;;;1.55;0.95;;;;;;;;;;4884108;29;20056;-59
2021/12/31 01:42:21;;;;;;;0.30;0.30;;;;;;;;;;4889643;29;20055;-60
2021/12/31 01:44:56;;;;;;;0.98;0.88;;;;;;;;;;4889407;29;20482;-59
2021/12/31 01:47:23;;;;;;;2.92;1.92;;;;;;;;;;4886423;29;20045;-60
2021/12/31 01:49:58;;;;;;;2.45;1.50;;;;;;;;;;4884417;29;20057;-60
2021/12/31 01:52:25;;;;;;;6.63;2.65;;;;;;;;;;4874149;29;20060;-60
2021/12/31 01:54:51;;;;;;;3.22;1.63;;;;;;;;;;4883846;29;20347;-58
2021/12/31 01:57:18;;;;;;;2.47;1.77;;;;;;;;;;4884005;29;20491;-60
2021/12/31 01:59:43;;;;;;;1.67;1.15;;;;;;;;;;4884184;29;20037;-58
2021/12/31 02:02:10;;;;;;;3.42;1.30;;;;;;;;;;4883011;29;20045;-60
2021/12/31 02:04:37;;;;;;;4.35;2.25;;;;;;;;;;4883335;29;20040;-60
2021/12/31 02:07:03;;;;;;;2.17;1.33;;;;;;;;;;4873690;29;20037;-59
2021/12/31 02:09:34;;;;;;;5.00;1.88;;;;;;;;;;4883278;29;20063;-59
2021/12/31 02:12:00;;;;;;;4.65;1.95;;;;;;;;;;4884358;29;20040;-57
2021/12/31 02:14:27;;;;;;;4.55;2.50;;;;;;;;;;4882609;29;20078;-59
2021/12/31 02:16:53;;;;;;;7.38;2.50;;;;;;;;;;4882893;29;20076;-58
2021/12/31 02:19:27;;;;;;;4.07;2.13;;;;;;;;;;4883371;29;20132;-59
2021/12/31 02:21:53;;;;;;;6.97;2.95;;;;;;;;;;4883373;29;20048;-59
2021/12/31 02:24:21;;;;;;;5.88;2.80;;;;;;;;;;4882114;29;20592;-58
2021/12/31 02:26:46;;;;;;;9.88;3.47;;;;;;;;;;4883288;29;20048;-60
2021/12/31 02:29:12;;;;;;;3.42;1.77;;;;;;;;;;4883428;29;20068;-59
2021/12/31 02:31:38;;;;;;;2.85;1.42;;;;;;;;;;4882394;29;20055;-60
2021/12/31 02:34:04;;;;;;;18.50;3.50;;;;;;;;;;4882294;29;20135;-59
2021/12/31 02:36:30;;;;;;;4.32;1.70;;;;;;;;;;4882782;29;20070;-59
2021/12/31 02:38:55;;;;;;;7.28;3.88;;;;;;;;;;4884034;29;20068;-59
2021/12/31 02:41:21;;;;;;;4.38;2.50;;;;;;;;;;4881799;29;20055;-58
2021/12/31 02:43:47;;;;;;;5.40;2.83;;;;;;;;;;4881926;29;20075;-59
2021/12/31 02:46:13;;;;;;;2.80;1.98;;;;;;;;;;4890138;29;20120;-59
2021/12/31 02:48:39;;;;;;;0.82;0.55;;;;;;;;;;4882290;29;20063;-60
2021/12/31 02:51:06;;;;;;;5.57;2.50;;;;;;;;;;4882483;29;20052;-59
2021/12/31 02:53:36;;;;;;;18.00;2.88;;;;;;;;;;4881343;29;20055;-60
2021/12/31 02:56:06;;;;;;;6.35;2.95;;;;;;;;;;4882468;29;20045;-59
2021/12/31 02:58:33;;;;;;;4.85;2.20;;;;;;;;;;4882186;29;20048;-59
2021/12/31 03:00:59;;;;;;;4.43;2.67;;;;;;;;;;4883351;29;20159;-60
2021/12/31 03:03:25;;;;;;;5.57;3.10;;;;;;;;;;4882308;29;20127;-60
2021/12/31 03:05:53;;;;;;;3.90;1.92;;;;;;;;;;4882601;29;20049;-59
2021/12/31 03:08:19;;;;;;;5.32;1.45;;;;;;;;;;4882166;29;20119;-59
2021/12/31 03:10:45;;;;;;;11.20;4.28;;;;;;;;;;4882786;29;20458;-59
2021/12/31 03:13:12;;;;;;;0.80;0.63;;;;;;;;;;4883417;29;20051;-60
2021/12/31 03:15:39;;;;;;;5.32;2.90;;;;;;;;;;4881282;29;20537;-58
2021/12/31 03:18:06;;;;;;;7.35;3.33;;;;;;;;;;4882210;29;20089;-58
2021/12/31 03:20:41;;;;;;;6.00;1.98;;;;;;;;;;4881231;29;20040;-59
2021/12/31 03:23:07;;;;;;;5.35;2.67;;;;;;;;;;4882227;29;20040;-59
2021/12/31 03:25:34;;;;;;;5.10;3.10;;;;;;;;;;4881243;29;20127;-58
2021/12/31 03:28:00;;;;;;;6.90;3.10;;;;;;;;;;4882769;29;20120;-59
2021/12/31 03:30:26;;;;;;;2.40;1.40;;;;;;;;;;4881678;29;20116;-60
2021/12/31 03:32:52;;;;;;;2.03;1.20;;;;;;;;;;4882629;29;20032;-59
2021/12/31 03:35:18;;;;;;;5.75;3.10;;;;;;;;;;4877242;29;20101;-58
2021/12/31 03:37:44;;;;;;;4.75;2.42;;;;;;;;;;4881775;29;20146;-59
2021/12/31 03:40:10;;;;;;;1.15;0.90;;;;;;;;;;4882179;29;20032;-61
2021/12/31 03:42:36;;;;;;;2.55;1.85;;;;;;;;;;4881454;29;20052;-61
2021/12/31 03:45:03;;;;;;;8.85;3.90;;;;;;;;;;4881635;29;20044;-61
2021/12/31 03:47:28;;;;;;;6.80;3.70;;;;;;;;;;4879031;29;20045;-60
2021/12/31 03:49:54;;;;;;;6.70;3.03;;;;;;;;;;4882811;29;20124;-59
2021/12/31 03:52:20;;;;;;;1.58;1.20;;;;;;;;;;4884055;29;20676;-61
2021/12/31 03:54:46;;;;;;;2.30;1.20;;;;;;;;;;4886218;29;20041;-58
2021/12/31 03:57:12;;;;;;;1.95;1.10;;;;;;;;;;4886260;29;20044;-57
2021/12/31 03:59:38;;;;;;;0.52;0.30;;;;;;;;;;4885385;29;20343;-57
2021/12/31 04:02:04;;;;;;;2.13;1.40;;;;;;;;;;4881948;29;20055;-59
2021/12/31 04:04:30;;;;;;;7.65;4.47;;;;;;;;;;4884078;29;20069;-60
2021/12/31 04:06:56;;;;;;;12.98;5.90;;;;;;;;;;4885857;29;20980;-60
2021/12/31 04:09:22;;;;;;;4.20;2.30;;;;;;;;;;4885053;29;20049;-61
2021/12/31 04:11:48;;;;;;;11.57;4.78;;;;;;;;;;4885498;29;20120;-59
2021/12/31 04:14:13;;;;;;;12.13;5.03;;;;;;;;;;4884649;29;20040;-61
2021/12/31 04:16:39;;;;;;;11.98;4.07;;;;;;;;;;4883747;29;20439;-60
2021/12/31 04:19:05;;;;;;;5.07;3.33;;;;;;;;;;4886459;29;20055;-61
2021/12/31 04:21:31;;;;;;;0.22;0.22;;;;;;;;;;4885312;29;20044;-60
2021/12/31 04:26:55;;;;;;;0.55;0.55;;;;;;;;;;4849595;29;20033;-59
2021/12/31 04:29:21;;;;;;;2.17;1.15;;;;;;;;;;4883010;29;20139;-59
2021/12/31 04:31:46;;;;;;;0.35;0.30;;;;;;;;;;4884739;29;20111;-59
2021/12/31 04:34:13;;;;;;;0.70;0.65;;;;;;;;;;4883308;29;20383;-59
2021/12/31 04:36:39;;;;;;;1.13;1.02;;;;;;;;;;4884821;29;20048;-59
2021/12/31 04:39:04;;;;;;;5.10;0.88;;;;;;;;;;4885770;29;20051;-60
2021/12/31 04:41:30;;;;;;;0.30;0.30;;;;;;;;;;4885598;29;20462;-59
2021/12/31 04:43:56;;;;;;;0.25;0.25;;;;;;;;;;4885155;29;20055;-60
2021/12/31 04:46:22;;;;;;;2.63;1.33;;;;;;;;;;4878776;29;20081;-61
2021/12/31 04:48:48;;;;;;;1.02;0.80;;;;;;;;;;4885109;29;20080;-62
2021/12/31 04:51:13;;;;;;;0.98;0.82;;;;;;;;;;4886121;29;20535;-61
2021/12/31 04:53:39;;;;;;;1.10;0.88;;;;;;;;;;4883969;29;20045;-60
2021/12/31 04:56:05;;;;;;;12.60;2.55;;;;;;;;;;4876952;29;20442;-60
2021/12/31 04:58:31;;;;;;;2.78;1.63;;;;;;;;;;4889760;29;20072;-61
2021/12/31 05:00:56;;;;;;;0.20;0.20;;;;;;;;;;4876344;29;20052;-61
2021/12/31 05:03:22;;;;;;;4.55;1.80;;;;;;;;;;4884249;29;20555;-60
2021/12/31 05:05:48;;;;;;;0.68;0.68;;;;;;;;;;4881406;29;20052;-60
2021/12/31 05:08:14;;;;;;;5.97;2.55;;;;;;;;;;4885054;29;20402;-60
2021/12/31 05:10:40;;;;;;;6.10;2.28;;;;;;;;;;4884371;29;20069;-59
2021/12/31 05:13:06;;;;;;;1.40;1.30;;;;;;;;;;4885649;29;20064;-59
2021/12/31 05:15:38;;;;;;;1.25;1.08;;;;;;;;;;4884882;29;20582;-60
2021/12/31 05:18:04;;;;;;;5.75;2.42;;;;;;;;;;4885042;29;20107;-61
2021/12/31 05:20:30;;;;;;;1.85;1.33;;;;;;;;;;4882814;29;20525;-58
2021/12/31 05:22:57;;;;;;;0.68;0.68;;;;;;;;;;4885594;29;20044;-59
2021/12/31 05:25:23;;;;;;;1.55;1.10;;;;;;;;;;4883885;29;20071;-59
2021/12/31 05:27:49;;;;;;;1.88;1.52;;;;;;;;;;4884490;29;20044;-59
2021/12/31 05:30:15;;;;;;;9.45;4.10;;;;;;;;;;4882640;29;20086;-60
2021/12/31 05:32:41;;;;;;;6.03;3.38;;;;;;;;;;4883856;29;20481;-59
2021/12/31 05:35:07;;;;;;;3.03;1.88;;;;;;;;;;4884088;29;20052;-60
2021/12/31 05:37:33;;;;;;;9.57;4.07;;;;;;;;;;4882907;29;20128;-59
2021/12/31 05:39:59;;;;;;;0.68;0.68;;;;;;;;;;4883578;29;20790;-59
2021/12/31 05:42:25;;;;;;;0.38;0.38;;;;;;;;;;4883409;29;20062;-59
2021/12/31 05:44:50;;;;;;;3.45;2.05;;;;;;;;;;4883639;29;20132;-58
2021/12/31 05:47:16;;;;;;;0.30;0.30;;;;;;;;;;4884436;29;20100;-59
2021/12/31 05:49:42;;;;;;;1.60;1.25;;;;;;;;;;4884175;29;20389;-59
2021/12/31 05:52:08;;;;;;;0.68;0.50;;;;;;;;;;4884704;29;20048;-58
2021/12/31 05:54:34;;;;;;;2.97;1.50;;;;;;;;;;4882804;29;20044;-59
2021/12/31 05:57:00;;;;;;;0.43;0.43;;;;;;;;;;4885694;29;20454;-58
2021/12/31 05:59:25;;;;;;;4.80;1.90;;;;;;;;;;4877646;29;20147;-59
2021/12/31 06:01:51;;;;;;;0.52;0.52;;;;;;;;;;4884271;29;20056;-59
2021/12/31 06:04:17;;;;;;;3.20;0.95;;;;;;;;;;4883581;29;20063;-60
2021/12/31 06:06:43;;;;;;;0.80;0.73;;;;;;;;;;4885416;29;20257;-59
2021/12/31 06:09:11;;;;;;;3.58;3.28;;;;;;;;;;4885822;29;20135;-60
2021/12/31 06:11:38;;;;;;;1.23;0.93;;;;;;;;;;4882385;29;20057;-60
2021/12/31 06:14:05;;;;;;;2.63;1.45;;;;;;;;;;4881701;29;20051;-60
2021/12/31 06:16:41;;;;;;;0.85;0.68;;;;;;;;;;4883668;29;20036;-60
2021/12/31 06:19:08;;;;;;;5.50;1.70;;;;;;;;;;4884711;29;20048;-60
2021/12/31 06:21:34;;;;;;;1.13;1.02;;;;;;;;;;4882924;29;20045;-60
2021/12/31 06:24:00;;;;;;;6.88;1.90;;;;;;;;;;4879661;29;20049;-59
2021/12/31 06:26:26;;;;;;;0.73;0.63;;;;;;;;;;4883447;29;20060;-60
2021/12/31 06:28:52;;;;;;;1.08;0.98;;;;;;;;;;4883371;29;20048;-60
2021/12/31 06:31:18;;;;;;;0.55;0.55;;;;;;;;;;4881953;29;20045;-59
2021/12/31 06:33:44;;;;;;;1.38;1.00;;;;;;;;;;4883714;29;20143;-57
2021/12/31 06:36:10;;;;;;;1.88;1.05;;;;;;;;;;4884786;29;20168;-59
2021/12/31 06:38:36;;;;;;;1.25;1.05;;;;;;;;;;4883749;29;20409;-58
2021/12/31 06:41:01;;;;;;;1.02;0.95;;;;;;;;;;4883957;29;20170;-61
2021/12/31 06:43:27;;;;;;;1.58;1.05;;;;;;;;;;4882511;29;20490;-59
2021/12/31 06:45:53;;;;;;;3.03;2.65;;;;;;;;;;4884118;29;20178;-59
2021/12/31 06:48:19;;;;;;;2.88;1.85;;;;;;;;;;4883165;29;20131;-58
2021/12/31 06:50:45;;;;;;;1.88;1.15;;;;;;;;;;4884616;29;20057;-59
2021/12/31 06:53:11;;;;;;;1.88;1.63;;;;;;;;;;4884731;29;20099;-55
2021/12/31 06:55:38;;;;;;;0.85;0.65;;;;;;;;;;4882195;29;20174;-59
2021/12/31 06:58:04;;;;;;;1.48;0.82;;;;;;;;;;4883741;29;20040;-59
2021/12/31 07:00:30;;;;;;;0.73;0.43;;;;;;;;;;4878489;29;20043;-60
2021/12/31 07:03:11;;;;;;;2.17;1.85;;;;;;;;;;4884974;29;20140;-59
2021/12/31 07:05:39;;;;;;;2.55;1.15;;;;;;;;;;4865978;29;20053;-58
2021/12/31 07:08:05;;;;;;;2.38;2.05;;;;;;;;;;4885053;29;20049;-58
2021/12/31 07:10:31;;;;;;;1.08;0.98;;;;;;;;;;4884098;29;20383;-59
2021/12/31 07:12:58;;;;;;;1.02;0.93;;;;;;;;;;4884317;29;20032;-59
2021/12/31 07:15:24;;;;;;;1.00;0.98;;;;;;;;;;4881917;29;20043;-59
2021/12/31 07:17:50;;;;;;;1.73;1.48;;;;;;;;;;4884896;29;20040;-59
2021/12/31 07:20:15;;;;;;;2.28;1.65;;;;;;;;;;4884604;29;20052;-59
2021/12/31 07:22:41;;;;;;;1.63;1.38;;;;;;;;;;4884163;29;20036;-59
2021/12/31 07:25:07;;;;;;;1.38;1.25;;;;;;;;;;4883770;29;20617;-56
2021/12/31 07:27:33;;;;;;;2.80;2.13;;;;;;;;;;4886008;29;20172;-60
2021/12/31 07:29:59;;;;;;;1.23;0.70;;;;;;;;;;4881593;29;20060;-58
2021/12/31 07:32:26;;;;;;;0.73;0.73;;;;;;;;;;4887790;29;20056;-58
2021/12/31 07:34:52;;;;;;;5.13;1.38;;;;;;;;;;4886430;29;20821;-58
2021/12/31 07:37:18;;;;;;;0.68;0.50;;;;;;;;;;4886163;29;20124;-54
2021/12/31 07:39:47;;;;;;;0.80;0.50;;;;;;;;;;4886166;29;20064;-58
2021/12/31 07:42:14;;;;;;;1.42;0.98;;;;;;;;;;4887608;29;20040;-57
2021/12/31 07:44:40;;;;;;;1.05;0.95;;;;;;;;;;4885613;29;20068;-59
2021/12/31 07:47:06;;;;;;;0.88;0.40;;;;;;;;;;4886996;29;20048;-60
2021/12/31 07:49:32;;;;;;;1.27;1.17;;;;;;;;;;4886157;29;20048;-60
2021/12/31 07:51:58;;;;;;;1.88;1.42;;;;;;;;;;4887841;29;20081;-58
2021/12/31 07:54:24;;;;;;;0.88;0.80;;;;;;;;;;4884336;29;20088;-59
2021/12/31 07:56:50;;;;;;;1.88;1.05;;;;;;;;;;4886814;29;20044;-58
2021/12/31 07:59:15;;;;;;;3.60;1.85;;;;;;;;;;4887984;29;20048;-59
2021/12/31 08:01:41;;;;;;;1.38;0.80;;;;;;;;;;4886978;29;20044;-57
2021/12/31 08:04:07;;;;;;;0.45;0.43;;;;;;;;;;4887737;29;20059;-60
2021/12/31 08:06:33;;;;;;;0.55;0.55;;;;;;;;;;4886429;29;20058;-58
2021/12/31 08:08:59;;;;;;;2.47;2.03;;;;;;;;;;4886512;29;20162;-59
2021/12/31 08:11:24;;;;;;;2.53;1.45;;;;;;;;;;4886429;29;20052;-59
2021/12/31 08:13:50;;;;;;;2.92;0.73;;;;;;;;;;4886083;29;20501;-59
2021/12/31 08:16:16;;;;;;;2.38;1.58;;;;;;;;;;4887084;29;20048;-59
2021/12/31 08:18:42;;;;;;;0.90;0.73;;;;;;;;;;4887051;29;20044;-58
2021/12/31 08:21:08;;;;;;;2.13;1.75;;;;;;;;;;4887851;29;20104;-59
2021/12/31 08:23:34;;;;;;;1.48;1.30;;;;;;;;;;4866087;29;21791;-59
2021/12/31 08:26:01;;;;;;;0.43;0.40;;;;;;;;;;4887087;29;20036;-58
2021/12/31 08:28:27;;;;;;;2.83;1.85;;;;;;;;;;4887093;29;20112;-57
2021/12/31 08:30:53;;;;;;;0.80;0.80;;;;;;;;;;4889406;29;20057;-57
2021/12/31 08:33:19;;;;;;;2.97;2.33;;;;;;;;;;4886173;29;20074;-56
2021/12/31 08:35:44;;;;;;;1.58;1.25;;;;;;;;;;4886861;29;20401;-59
2021/12/31 08:38:10;;;;;;;1.42;1.33;;;;;;;;;;4885458;29;20728;-57
2021/12/31 08:40:36;;;;;;;1.08;0.90;;;;;;;;;;4885850;29;20046;-57
2021/12/31 08:43:03;;;;;;;0.93;0.77;;;;;;;;;;4885511;29;20131;-58
2021/12/31 08:45:29;;;;;;;0.77;0.52;;;;;;;;;;4880868;29;20045;-58
2021/12/31 08:47:57;;;;;;;0.88;0.85;;;;;;;;;;4885448;29;20055;-59
2021/12/31 08:50:23;;;;;;;0.80;0.63;;;;;;;;;;4884998;29;20059;-58
2021/12/31 08:52:49;;;;;;;1.58;1.40;;;;;;;;;;4885992;29;20521;-58
2021/12/31 08:55:15;;;;;;;6.22;0.60;;;;;;;;;;4867798;29;20056;-59
2021/12/31 08:57:43;;;;;;;11.02;1.10;;;;;;;;;;4884836;29;20059;-58
2021/12/31 09:00:09;;;;;;;1.20;0.60;;;;;;;;;;4885372;29;20105;-57
2021/12/31 09:02:42;;;;;;;3.10;2.40;;;;;;;;;;4884555;29;20410;-57
2021/12/31 09:05:08;;;;;;;1.77;1.23;;;;;;;;;;4885724;29;20056;-59
2021/12/31 09:07:34;;;;;;;1.45;0.95;;;;;;;;;;4884209;29;20130;-59
2021/12/31 09:10:00;;;;;;;1.58;1.48;;;;;;;;;;4887489;29;20158;-59
2021/12/31 09:12:26;;;;;;;0.47;0.40;;;;;;;;;;4884120;29;20239;-58
2021/12/31 09:14:52;;;;;;;0.68;0.47;;;;;;;;;;4884962;29;20575;-59
2021/12/31 09:17:18;;;;;;;1.60;1.50;;;;;;;;;;4882606;29;20051;-59
2021/12/31 09:19:44;;;;;;;3.13;0.98;;;;;;;;;;4886746;29;20132;-56
2021/12/31 09:22:10;;;;;;;0.73;0.50;;;;;;;;;;4885900;29;20037;-59
2021/12/31 09:24:36;;;;;;;0.50;0.40;;;;;;;;;;4883498;29;20096;-58
2021/12/31 09:27:02;;;;;;;1.13;0.82;;;;;;;;;;4882528;29;20082;-58
2021/12/31 09:29:27;;;;;;;1.05;0.93;;;;;;;;;;4884519;29;20044;-59
2021/12/31 09:31:53;;;;;;;10.30;2.03;;;;;;;;;;4884891;29;20123;-58
2021/12/31 09:34:19;;;;;;;2.45;1.52;;;;;;;;;;4884619;29;20056;-58
2021/12/31 09:36:45;;;;;;;0.77;0.77;;;;;;;;;;4883548;29;20080;-56
2021/12/31 09:39:11;;;;;;;0.38;0.30;;;;;;;;;;4885167;29;20161;-59
2021/12/31 09:41:37;;;;;;;1.33;1.10;;;;;;;;;;4883799;29;20048;-58
2021/12/31 09:44:03;;;;;;;2.42;1.13;;;;;;;;;;4883379;29;20040;-59
2021/12/31 09:46:29;;;;;;;1.33;1.23;;;;;;;;;;4884466;29;20047;-59
2021/12/31 09:48:55;;;;;;;0.95;0.88;;;;;;;;;;4883183;29;20048;-59
2021/12/31 09:51:21;;;;;;;1.25;0.65;;;;;;;;;;4884773;29;20057;-60
2021/12/31 09:53:47;;;;;;;0.47;0.40;;;;;;;;;;4882838;29;20056;-58
2021/12/31 09:56:13;;;;;;;0.85;0.63;;;;;;;;;;4884927;29;20037;-57
2021/12/31 09:58:39;;;;;;;1.73;1.27;;;;;;;;;;4875267;29;20048;-58
2021/12/31 10:01:08;;;;;;;1.17;0.70;;;;;;;;;;4885405;29;20982;-55
2021/12/31 10:03:34;;;;;;;0.38;0.30;;;;;;;;;;4884078;29;20086;-59
2021/12/31 10:06:02;;;;;;;1.25;1.13;;;;;;;;;;4884193;29;20052;-58
2021/12/31 10:08:29;;;;;;;2.05;1.33;;;;;;;;;;4883754;29;20100;-58
2021/12/31 10:11:07;;;;;;;1.65;1.52;;;;;;;;;;4876174;29;20052;-59
2021/12/31 10:13:37;;;;;;;0.98;0.88;;;;;;;;;;4883339;29;20065;-56
2021/12/31 10:16:03;;;;;;;0.75;0.60;;;;;;;;;;4883632;29;20063;-59
2021/12/31 10:18:36;;;;;;;1.13;1.00;;;;;;;;;;4884087;29;20085;-58
2021/12/31 10:21:02;;;;;;;0.50;0.50;;;;;;;;;;4881697;29;20045;-59
2021/12/31 10:23:28;;;;;;;0.55;0.50;;;;;;;;;;4884039;29;20044;-58
2021/12/31 10:26:07;;;;;;;0.40;0.40;;;;;;;;;;4884530;29;20135;-57
2021/12/31 10:28:33;;;;;;;2.03;1.13;;;;;;;;;;4883756;29;20072;-59
2021/12/31 10:31:15;;;;;;;1.17;1.08;;;;;;;;;;4885132;29;20118;-58
2021/12/31 10:33:45;;;;;;;2.35;1.10;;;;;;;;;;4881673;29;20045;-59
2021/12/31 10:36:29;;;;;;;0.77;0.75;;;;;;;;;;4884333;29;20664;-59
2021/12/31 10:38:55;;;;;;;0.30;0.30;;;;;;;;;;4881678;29;20052;-58
2021/12/31 10:41:21;;;;;;;0.85;0.68;;;;;;;;;;4885280;29;20143;-58
2021/12/31 10:43:57;;;;;;;2.20;1.88;;;;;;;;;;4885839;29;20045;-58
2021/12/31 10:46:26;;;;;;;3.55;2.80;;;;;;;;;;4884873;29;20125;-58
2021/12/31 10:48:56;;;;;;;1.13;0.82;;;;;;;;;;4886628;29;20051;-59
2021/12/31 10:51:34;;;;;;;5.88;1.65;;;;;;;;;;4884954;29;20107;-59
2021/12/31 10:54:17;;;;;;;1.70;1.52;;;;;;;;;;4887786;29;20104;-56
2021/12/31 10:56:42;;;;;;;1.65;1.27;;;;;;;;;;4887642;29;20048;-59
2021/12/31 10:59:08;;;;;;;1.65;0.93;;;;;;;;;;4890129;29;20036;-59
2021/12/31 11:01:34;;;;;;;1.52;1.42;;;;;;;;;;4888499;29;20068;-59
2021/12/31 11:04:00;;;;;;;0.65;0.65;;;;;;;;;;4889554;29;20590;-59
2021/12/31 11:06:26;;;;;;;2.10;1.70;;;;;;;;;;4890313;29;20081;-58
2021/12/31 11:08:54;;;;;;;2.45;1.20;;;;;;;;;;4892034;29;20045;-58
2021/12/31 11:11:21;;;;;;;0.68;0.68;;;;;;;;;;4888476;29;20056;-59
2021/12/31 11:13:49;;;;;;;1.88;0.85;;;;;;;;;;4887880;29;20048;-58
2021/12/31 11:16:15;;;;;;;1.23;0.88;;;;;;;;;;4861536;29;20405;-60
2021/12/31 11:18:41;;;;;;;2.15;1.02;;;;;;;;;;4886969;29;20040;-57
2021/12/31 11:21:09;;;;;;;0.50;0.50;;;;;;;;;;4886859;29;20059;-58
2021/12/31 11:23:36;;;;;;;0.57;0.57;;;;;;;;;;4879556;29;20044;-57
2021/12/31 11:26:13;;;;;;;1.58;1.48;;;;;;;;;;4883951;29;20052;-58
2021/12/31 11:28:43;;;;;;;0.70;0.65;;;;;;;;;;4883586;29;20052;-58
2021/12/31 11:31:18;;;;;;;0.43;0.43;;;;;;;;;;4883875;29;20104;-58
2021/12/31 11:33:56;;;;;;;0.73;0.47;;;;;;;;;;4881843;29;20040;-58
2021/12/31 11:36:37;;;;;;;0.95;0.80;;;;;;;;;;4882270;29;20470;-58
2021/12/31 11:39:13;;;;;;;0.30;0.30;;;;;;;;;;4882531;29;20059;-58
2021/12/31 11:41:40;;;;;;;0.85;0.40;;;;;;;;;;4881726;29;20052;-58
2021/12/31 11:44:07;;;;;;;27.70;1.95;;;;;;;;;;4880901;29;20041;-58
2021/12/31 11:46:35;;;;;;;2.20;1.98;;;;;;;;;;4882357;29;20132;-59
2021/12/31 11:49:01;;;;;;;1.50;1.10;;;;;;;;;;4883426;29;20402;-58
2021/12/31 11:51:36;;;;;;;0.88;0.65;;;;;;;;;;4881722;29;20060;-59
2021/12/31 11:54:04;;;;;;;0.60;0.50;;;;;;;;;;4883809;29;20044;-57
2021/12/31 11:56:36;;;;;;;0.88;0.80;;;;;;;;;;4885139;29;20104;-57
2021/12/31 11:59:07;;;;;;;2.03;1.75;;;;;;;;;;4884809;29;20040;-58
2021/12/31 12:01:36;;;;;;;2.72;1.38;;;;;;;;;;4882638;29;20480;-57
2021/12/31 12:04:18;;;;;;;1.05;0.82;;;;;;;;;;4881150;29;20061;-57
2021/12/31 12:06:53;;;;;;;0.85;0.75;;;;;;;;;;4882702;29;20142;-57
2021/12/31 12:09:19;;;;;;;0.63;0.55;;;;;;;;;;4878873;29;20061;-58
2021/12/31 12:12:01;;;;;;;0.35;0.35;;;;;;;;;;4882785;29;20066;-58
2021/12/31 12:14:28;;;;;;;0.38;0.30;;;;;;;;;;4885822;29;20708;-58
2021/12/31 12:16:55;;;;;;;1.63;1.08;;;;;;;;;;4885159;29;20040;-57
2021/12/31 12:19:20;;;;;;;0.77;0.65;;;;;;;;;;4884631;29;20060;-59
2021/12/31 12:21:52;;;;;;;0.68;0.63;;;;;;;;;;4885484;29;20595;-58
2021/12/31 12:24:22;;;;;;;0.77;0.68;;;;;;;;;;4885498;29;20045;-59
2021/12/31 12:26:49;;;;;;;3.33;1.13;;;;;;;;;;4885825;29;20045;-59
2021/12/31 12:29:25;;;;;;;4.28;1.38;;;;;;;;;;4881977;29;20052;-58
2021/12/31 12:32:06;;;;;;;1.23;1.05;;;;;;;;;;4885282;29;20048;-58
2021/12/31 12:34:32;;;;;;;1.90;1.48;;;;;;;;;;4883488;29;20073;-58
2021/12/31 12:36:58;;;;;;;3.42;2.05;;;;;;;;;;4885378;29;20041;-59
2021/12/31 12:39:24;;;;;;;0.65;0.63;;;;;;;;;;4883379;29;20090;-58
2021/12/31 12:41:50;;;;;;;2.03;1.85;;;;;;;;;;4885829;29;20036;-59
2021/12/31 12:44:16;;;;;;;0.88;0.50;;;;;;;;;;4885754;29;20391;-59
2021/12/31 12:46:55;;;;;;;0.55;0.40;;;;;;;;;;4884918;29;20052;-59
2021/12/31 12:49:24;;;;;;;2.08;0.95;;;;;;;;;;4885039;29;20081;-58
2021/12/31 12:51:50;;;;;;;1.50;1.17;;;;;;;;;;4885668;29;20569;-59
2021/12/31 12:54:21;;;;;;;0.40;0.40;;;;;;;;;;4883808;29;20457;-55
2021/12/31 12:56:50;;;;;;;2.28;0.88;;;;;;;;;;4885198;29;20692;-59
2021/12/31 12:59:21;;;;;;;0.32;0.30;;;;;;;;;;4885097;29;20048;-59
2021/12/31 13:01:48;;;;;;;0.35;0.35;;;;;;;;;;4883780;29;20067;-59
2021/12/31 13:04:15;;;;;;;0.40;0.40;;;;;;;;;;4884166;29;20052;-59
2021/12/31 13:06:43;;;;;;;0.30;0.30;;;;;;;;;;4884588;29;20040;-58
2021/12/31 13:09:16;;;;;;;0.30;0.30;;;;;;;;;;4884998;29;20767;-57
2021/12/31 13:11:49;;;;;;;0.55;0.55;;;;;;;;;;4885033;29;20108;-59
2021/12/31 13:14:15;;;;;;;1.15;1.05;;;;;;;;;;4883349;29;20112;-58
2021/12/31 13:16:42;;;;;;;11.15;2.05;;;;;;;;;;4885951;29;20104;-58
2021/12/31 13:19:10;;;;;;;1.08;0.93;;;;;;;;;;4886222;29;20051;-58
2021/12/31 13:21:36;;;;;;;1.70;1.10;;;;;;;;;;4886425;29;20048;-57
2021/12/31 13:24:02;;;;;;;7.47;1.63;;;;;;;;;;4884673;29;20095;-60
2021/12/31 13:26:29;;;;;;;0.30;0.30;;;;;;;;;;4885248;29;20056;-59
2021/12/31 13:28:58;;;;;;;8.57;1.50;;;;;;;;;;4884679;29;20124;-60
2021/12/31 13:31:34;;;;;;;1.35;1.30;;;;;;;;;;4888105;29;20052;-58
2021/12/31 13:34:29;;;;;;;2.30;2.17;;;;;;;;;;4885747;29;20049;-57
2021/12/31 13:36:55;;;;;;;0.50;0.50;;;;;;;;;;4864627;29;20040;-56
2021/12/31 13:39:31;;;;;;;0.55;0.47;;;;;;;;;;4884794;29;20041;-57
2021/12/31 13:42:01;;;;;;;1.00;0.95;;;;;;;;;;4884586;29;20051;-59
2021/12/31 13:44:31;;;;;;;0.30;0.30;;;;;;;;;;4884581;29;20048;-56
2021/12/31 13:47:02;;;;;;;0.35;0.35;;;;;;;;;;4883165;29;20053;-57
2021/12/31 13:49:28;;;;;;;1.05;1.00;;;;;;;;;;4884115;29;20795;-57
2021/12/31 13:51:54;;;;;;;0.55;0.50;;;;;;;;;;4885792;29;20071;-57
2021/12/31 13:54:32;;;;;;;2.10;1.48;;;;;;;;;;4884108;29;20044;-59
2021/12/31 13:56:58;;;;;;;0.85;0.70;;;;;;;;;;4881363;29;20044;-58
2021/12/31 13:59:34;;;;;;;0.40;0.40;;;;;;;;;;4883748;29;20455;-58
2021/12/31 14:02:07;;;;;;;0.40;0.40;;;;;;;;;;4880883;29;20093;-56
2021/12/31 14:04:59;;;;;;;1.58;1.05;;;;;;;;;;4881001;29;20060;-58
2021/12/31 14:07:43;;;;;;;2.03;1.67;;;;;;;;;;4875706;29;20052;-57
2021/12/31 14:10:31;;;;;;;0.30;0.30;;;;;;;;;;4883635;29;20122;-60
2021/12/31 14:12:57;;;;;;;0.60;0.57;;;;;;;;;;4871575;29;20056;-59
2021/12/31 14:15:24;;;;;;;0.40;0.40;;;;;;;;;;4882491;29;20040;-57
2021/12/31 14:17:51;;;;;;;1.65;1.55;;;;;;;;;;4883381;29;20138;-57
2021/12/31 14:20:17;;;;;;;0.47;0.35;;;;;;;;;;4883018;29;20048;-57
2021/12/31 14:22:43;;;;;;;0.52;0.52;;;;;;;;;;4884877;29;20094;-57
2021/12/31 14:25:09;;;;;;;0.40;0.40;;;;;;;;;;4886754;29;20390;-57
2021/12/31 14:27:35;;;;;;;4.13;2.00;;;;;;;;;;4882725;29;20080;-58
2021/12/31 14:30:02;;;;;;;2.72;1.75;;;;;;;;;;4883138;29;20194;-58
2021/12/31 14:32:28;;;;;;;0.40;0.40;;;;;;;;;;4883407;29;20044;-58
2021/12/31 14:34:55;;;;;;;0.40;0.40;;;;;;;;;;4883298;29;20044;-57
2021/12/31 14:37:21;;;;;;;0.63;0.40;;;;;;;;;;4881988;29;20072;-57
2021/12/31 14:39:55;;;;;;;0.40;0.40;;;;;;;;;;4884223;29;20135;-57
2021/12/31 14:42:22;;;;;;;0.45;0.45;;;;;;;;;;4884793;29;20497;-57
2021/12/31 14:44:48;;;;;;;0.43;0.43;;;;;;;;;;4883458;29;20056;-57
2021/12/31 14:47:14;;;;;;;0.50;0.47;;;;;;;;;;4882376;29;20040;-58
2021/12/31 14:49:40;;;;;;;4.93;1.98;;;;;;;;;;4881126;29;20048;-58
2021/12/31 14:52:06;;;;;;;0.52;0.52;;;;;;;;;;4883326;29;20104;-57